Time;durP1;ratioP1;P1;durP2;ratioP2;P2;SDS_P1;SDS_P2;PMS_P1;PMS_P2;Temp;Humidity;BMP_temperature;BMP_pressure;BME280_temperature;BME280_humidity;BME280_pressure;Samples;Min_cycle;Max_cycle;Signal;HPM_P1;HPM_P2
2021/09/09 00:00:12;;;;;;;7.10;4.70;;;;;;;12.81;72.53;97036.88;5032760;28;20037;-56
2021/09/09 00:02:38;;;;;;;6.22;4.30;;;;;;;12.85;72.97;97038.47;5032795;28;20159;-57
2021/09/09 00:05:05;;;;;;;7.82;4.78;;;;;;;12.83;73.14;97032.44;5035050;28;20029;-58
2021/09/09 00:07:30;;;;;;;7.07;4.68;;;;;;;12.79;73.11;97034.31;5036806;28;20614;-59
2021/09/09 00:09:56;;;;;;;12.60;5.53;;;;;;;12.82;73.43;97038.63;5036855;28;20108;-56
2021/09/09 00:12:22;;;;;;;7.35;4.65;;;;;;;12.86;73.03;97037.59;5036653;28;20506;-59
2021/09/09 00:14:48;;;;;;;11.15;4.70;;;;;;;12.93;72.84;97040.81;5036736;28;20107;-58
2021/09/09 00:17:14;;;;;;;6.88;4.45;;;;;;;12.95;73.03;97050.34;5036608;28;20518;-59
2021/09/09 00:19:39;;;;;;;7.15;4.53;;;;;;;12.97;73.30;97045.00;5036680;28;20018;-58
2021/09/09 00:22:05;;;;;;;8.95;4.13;;;;;;;13.01;72.55;97039.59;5036587;28;20187;-57
2021/09/09 00:24:30;;;;;;;6.78;3.42;;;;;;;13.03;73.25;97047.41;5036547;28;20383;-59
2021/09/09 00:26:56;;;;;;;9.07;4.10;;;;;;;12.99;73.21;97045.81;5036435;28;20099;-59
2021/09/09 00:29:21;;;;;;;5.55;3.72;;;;;;;12.98;72.82;97047.56;5036414;28;20037;-59
2021/09/09 00:31:47;;;;;;;5.65;3.80;;;;;;;13.00;73.13;97048.38;5036342;28;20095;-57
2021/09/09 00:34:13;;;;;;;6.65;3.75;;;;;;;12.98;73.40;97050.19;5036378;28;20036;-59
2021/09/09 00:36:38;;;;;;;8.15;3.85;;;;;;;13.01;73.44;97046.63;5036233;28;20022;-59
2021/09/09 00:39:04;;;;;;;7.20;3.80;;;;;;;13.01;73.45;97042.22;5036252;28;20038;-59
2021/09/09 00:41:30;;;;;;;8.63;4.18;;;;;;;13.07;73.86;97042.88;5036201;28;20033;-59
2021/09/09 00:43:56;;;;;;;4.35;3.67;;;;;;;13.08;73.83;97057.72;5036174;28;20052;-59
2021/09/09 00:46:23;;;;;;;8.70;4.15;;;;;;;13.06;73.35;97049.91;5036194;28;20076;-58
2021/09/09 00:48:50;;;;;;;8.00;3.88;;;;;;;13.11;73.82;97054.97;5036063;28;20105;-56
2021/09/09 00:51:16;;;;;;;6.30;4.05;;;;;;;13.19;73.56;97055.53;5036095;28;20022;-58
2021/09/09 00:53:42;;;;;;;5.88;4.25;;;;;;;13.22;73.61;97051.94;5035909;28;20022;-57
2021/09/09 00:56:08;;;;;;;5.45;3.45;;;;;;;13.29;73.93;97055.16;5035869;28;20017;-58
2021/09/09 00:58:36;;;;;;;7.40;3.97;;;;;;;13.31;73.33;97051.56;5035697;28;20038;-57
2021/09/09 01:01:02;;;;;;;5.47;3.70;;;;;;;13.41;73.82;97049.41;5035829;28;20026;-57
2021/09/09 01:03:27;;;;;;;5.88;2.97;;;;;;;13.47;73.82;97048.28;5035731;28;20038;-60
2021/09/09 01:05:53;;;;;;;5.90;3.58;;;;;;;13.50;73.64;97056.06;5035816;28;20088;-58
2021/09/09 01:08:19;;;;;;;5.72;3.45;;;;;;;13.44;72.93;97044.00;5035786;28;20025;-59
2021/09/09 01:10:45;;;;;;;7.88;3.70;;;;;;;13.47;72.70;97049.16;5035739;28;20052;-57
2021/09/09 01:13:11;;;;;;;6.50;3.58;;;;;;;13.55;73.46;97051.50;5035506;28;20123;-57
2021/09/09 01:15:41;;;;;;;7.40;3.17;;;;;;;13.55;73.18;97045.38;5035308;28;20464;-59
2021/09/09 01:18:08;;;;;;;5.07;2.80;;;;;;;13.56;73.39;97042.69;5035628;28;20163;-59
2021/09/09 01:20:34;;;;;;;6.63;4.13;;;;;;;13.56;73.61;97042.69;5035486;28;20025;-59
2021/09/09 01:23:00;;;;;;;6.60;3.20;;;;;;;13.60;73.08;97044.25;5035398;28;20037;-57
2021/09/09 01:25:26;;;;;;;5.40;3.40;;;;;;;13.67;73.49;97044.88;5035289;28;20034;-60
2021/09/09 01:27:51;;;;;;;6.25;3.47;;;;;;;13.66;73.56;97042.28;5035301;28;20017;-58
2021/09/09 01:30:17;;;;;;;6.07;3.33;;;;;;;13.62;72.86;97042.44;5035290;28;20026;-58
2021/09/09 01:32:43;;;;;;;5.07;3.55;;;;;;;13.59;72.27;97039.06;5035242;28;20021;-58
2021/09/09 01:35:09;;;;;;;4.38;3.30;;;;;;;13.60;72.74;97036.38;5035297;28;20042;-59
2021/09/09 01:37:35;;;;;;;5.50;3.60;;;;;;;13.61;72.77;97037.22;5035221;28;20032;-56
2021/09/09 01:40:01;;;;;;;4.30;3.30;;;;;;;13.61;73.18;97030.19;5035067;28;20105;-59
2021/09/09 01:42:26;;;;;;;7.95;3.85;;;;;;;13.62;73.01;97033.69;5035088;28;20028;-59
2021/09/09 01:44:52;;;;;;;6.15;3.40;;;;;;;13.64;72.74;97031.84;5035036;28;20398;-58
2021/09/09 01:47:17;;;;;;;4.65;3.22;;;;;;;13.61;72.50;97035.44;5034999;28;20040;-59
2021/09/09 01:49:43;;;;;;;8.65;3.85;;;;;;;13.60;72.41;97036.38;5034844;28;20227;-59
2021/09/09 01:52:09;;;;;;;5.07;3.55;;;;;;;13.59;72.56;97032.03;5034841;28;20029;-56
2021/09/09 01:54:34;;;;;;;10.18;4.03;;;;;;;13.66;72.99;97037.88;5034788;28;20053;-58
2021/09/09 01:57:00;;;;;;;5.43;3.83;;;;;;;13.66;72.32;97037.03;5034848;28;20033;-58
2021/09/09 01:59:26;;;;;;;5.30;3.38;;;;;;;13.62;72.43;97034.53;5034643;28;20114;-59
2021/09/09 02:01:51;;;;;;;6.38;3.65;;;;;;;13.66;72.64;97032.63;5034639;28;20160;-58
2021/09/09 02:04:17;;;;;;;8.15;3.75;;;;;;;13.62;72.61;97038.94;5034629;28;20032;-57
2021/09/09 02:06:42;;;;;;;6.88;3.78;;;;;;;13.63;72.14;97033.59;5034638;28;20033;-58
2021/09/09 02:09:08;;;;;;;5.55;3.65;;;;;;;13.69;72.35;97036.91;5034586;28;20026;-55
2021/09/09 02:11:33;;;;;;;7.53;3.85;;;;;;;13.64;72.53;97030.06;5034569;28;20074;-59
2021/09/09 02:13:59;;;;;;;3.97;3.28;;;;;;;13.67;72.44;97028.22;5034326;28;20037;-58
2021/09/09 02:16:25;;;;;;;5.05;3.60;;;;;;;13.66;72.66;97019.47;5034494;28;20151;-58
2021/09/09 02:18:50;;;;;;;7.28;3.97;;;;;;;13.64;72.31;97022.16;5034449;28;20037;-58
2021/09/09 02:21:16;;;;;;;6.93;3.95;;;;;;;13.62;72.39;97018.78;5034316;28;20423;-59
2021/09/09 02:23:42;;;;;;;9.45;4.55;;;;;;;13.59;71.82;97012.78;5034437;28;20151;-58
2021/09/09 02:26:08;;;;;;;8.80;4.20;;;;;;;13.62;72.01;97012.66;5032894;28;20069;-59
2021/09/09 02:28:33;;;;;;;5.65;4.25;;;;;;;13.61;71.51;97009.16;5033546;28;20514;-59
2021/09/09 02:30:59;;;;;;;7.20;4.90;;;;;;;13.66;70.90;97019.47;5034102;28;20104;-59
2021/09/09 02:33:25;;;;;;;7.30;5.30;;;;;;;13.62;71.50;97013.50;5034049;28;20486;-58
2021/09/09 02:35:50;;;;;;;13.15;5.28;;;;;;;13.56;71.25;97011.13;5033993;28;20498;-57
2021/09/09 02:38:16;;;;;;;9.45;5.15;;;;;;;13.57;70.63;97012.00;5033930;28;20025;-59
2021/09/09 02:40:41;;;;;;;8.80;4.90;;;;;;;13.55;70.68;97011.19;5034043;28;20065;-56
2021/09/09 02:43:08;;;;;;;5.88;4.88;;;;;;;13.56;70.87;97005.88;5033929;28;20392;-57
2021/09/09 02:45:33;;;;;;;11.73;4.65;;;;;;;13.57;71.62;96998.88;5033930;28;20373;-57
2021/09/09 02:48:02;;;;;;;8.55;4.93;;;;;;;13.61;71.45;97003.91;5033855;28;20041;-58
2021/09/09 02:50:27;;;;;;;8.60;4.65;;;;;;;13.66;70.73;96998.44;5033748;28;20025;-58
2021/09/09 02:52:53;;;;;;;6.85;5.30;;;;;;;13.65;70.31;96996.75;5033693;28;20544;-58
2021/09/09 02:55:19;;;;;;;12.18;5.40;;;;;;;13.62;70.82;96997.75;5033784;28;20030;-57
2021/09/09 02:57:44;;;;;;;7.00;5.53;;;;;;;13.62;70.37;96995.13;5033537;28;20033;-58
2021/09/09 03:00:10;;;;;;;12.13;5.35;;;;;;;13.67;70.35;96999.31;5033567;28;20053;-57
2021/09/09 03:02:36;;;;;;;8.45;5.43;;;;;;;13.65;70.30;96994.13;5033493;28;20100;-57
2021/09/09 03:05:02;;;;;;;11.43;5.55;;;;;;;13.67;69.66;97001.94;5033483;28;20060;-56
2021/09/09 03:07:27;;;;;;;8.45;5.63;;;;;;;13.64;70.23;96997.69;5033551;28;20029;-59
2021/09/09 03:09:53;;;;;;;8.40;5.18;;;;;;;13.67;69.73;96996.69;5033515;28;20080;-58
2021/09/09 03:12:18;;;;;;;9.95;5.50;;;;;;;13.69;69.56;96994.84;5033289;28;20025;-58
2021/09/09 03:14:44;;;;;;;11.00;5.43;;;;;;;13.72;69.56;96999.94;5033431;28;20100;-57
2021/09/09 03:17:10;;;;;;;11.43;5.10;;;;;;;13.75;69.48;97005.06;5033345;28;20032;-56
2021/09/09 03:19:37;;;;;;;9.02;5.40;;;;;;;13.74;69.41;97000.75;5033365;28;20034;-57
2021/09/09 03:22:03;;;;;;;11.73;5.35;;;;;;;13.76;69.45;96999.75;5033267;28;20060;-58
2021/09/09 03:24:29;;;;;;;9.93;4.90;;;;;;;13.80;69.97;96999.63;5033288;28;20079;-59
2021/09/09 03:26:54;;;;;;;6.70;4.35;;;;;;;13.78;69.54;96997.06;5033221;28;20021;-57
2021/09/09 03:29:20;;;;;;;8.63;4.70;;;;;;;13.85;69.10;97000.28;5033163;28;20044;-56
2021/09/09 03:31:45;;;;;;;8.43;4.78;;;;;;;13.83;69.38;96987.22;5033271;28;20017;-59
2021/09/09 03:34:11;;;;;;;7.43;4.70;;;;;;;13.85;69.34;96993.22;5033086;28;20022;-56
2021/09/09 03:36:37;;;;;;;7.72;4.70;;;;;;;13.84;69.69;96988.03;5033117;28;20082;-58
2021/09/09 03:39:03;;;;;;;11.88;4.53;;;;;;;13.85;69.44;96979.25;5033028;28;20112;-57
2021/09/09 03:41:28;;;;;;;7.57;5.15;;;;;;;13.83;70.21;96984.56;5033046;28;20120;-58
2021/09/09 03:43:54;;;;;;;7.10;5.15;;;;;;;13.85;69.98;96980.09;5033113;28;20113;-59
2021/09/09 03:46:20;;;;;;;7.65;5.20;;;;;;;13.82;69.84;96979.38;5033030;28;20028;-58
2021/09/09 03:48:45;;;;;;;10.50;4.78;;;;;;;13.78;70.04;96989.16;5032999;28;20024;-59
2021/09/09 03:51:11;;;;;;;9.55;5.18;;;;;;;13.71;69.71;96985.09;5032996;28;20056;-58
2021/09/09 03:53:36;;;;;;;9.20;5.05;;;;;;;13.68;69.48;96983.47;5032886;28;20074;-59
2021/09/09 03:56:02;;;;;;;12.23;5.05;;;;;;;13.66;69.96;96984.47;5032946;28;20037;-58
2021/09/09 03:58:27;;;;;;;9.48;4.88;;;;;;;13.59;69.27;96979.47;5032622;28;20041;-60
2021/09/09 04:00:53;;;;;;;6.43;4.35;;;;;;;13.60;69.47;96983.78;5032891;28;20029;-59
2021/09/09 04:03:19;;;;;;;5.85;4.03;;;;;;;13.63;69.38;96982.81;5032978;28;20033;-59
2021/09/09 04:05:44;;;;;;;10.00;4.63;;;;;;;13.69;68.95;96981.72;5032854;28;20483;-58
2021/09/09 04:08:10;;;;;;;7.22;4.88;;;;;;;13.72;69.19;96981.53;5032838;28;20029;-56
2021/09/09 04:10:36;;;;;;;11.38;4.32;;;;;;;13.75;68.27;96976.16;5032860;28;20056;-58
2021/09/09 04:13:03;;;;;;;9.25;4.68;;;;;;;13.73;68.88;96970.97;5032721;28;20053;-59
2021/09/09 04:15:29;;;;;;;4.88;4.15;;;;;;;13.73;68.83;96980.66;5032695;28;20030;-58
2021/09/09 04:17:54;;;;;;;9.38;5.13;;;;;;;13.75;68.61;96979.66;5032650;28;20020;-58
2021/09/09 04:20:23;;;;;;;8.23;5.55;;;;;;;13.77;69.20;96984.84;5032813;28;20018;-59
2021/09/09 04:22:48;;;;;;;10.13;4.65;;;;;;;13.83;68.49;96983.72;5032789;28;20057;-59
2021/09/09 04:25:14;;;;;;;7.88;5.00;;;;;;;13.85;68.46;96987.97;5032719;28;20147;-58
2021/09/09 04:27:39;;;;;;;9.82;4.57;;;;;;;13.82;68.37;96987.28;5032663;28;20028;-59
2021/09/09 04:30:05;;;;;;;12.52;4.50;;;;;;;13.90;67.79;96978.13;5032592;28;20025;-57
2021/09/09 04:32:31;;;;;;;8.85;4.80;;;;;;;13.95;68.76;96977.06;5032467;28;20079;-58
2021/09/09 04:34:56;;;;;;;10.70;4.68;;;;;;;13.96;68.51;96976.13;5032582;28;20030;-59
2021/09/09 04:37:22;;;;;;;6.85;5.10;;;;;;;14.03;68.44;96978.41;5032810;28;20109;-59
2021/09/09 04:39:48;;;;;;;7.47;4.50;;;;;;;14.14;68.70;96983.19;5032513;28;20021;-59
2021/09/09 04:42:14;;;;;;;12.88;5.43;;;;;;;14.27;68.67;96980.84;5032466;28;20033;-58
2021/09/09 04:44:39;;;;;;;5.80;4.38;;;;;;;14.27;68.04;96980.00;5032420;28;20021;-59
2021/09/09 04:47:05;;;;;;;6.32;3.78;;;;;;;14.40;68.00;96982.94;5032466;28;20013;-58
2021/09/09 04:49:30;;;;;;;7.47;4.03;;;;;;;14.50;67.84;96985.97;5032353;28;20078;-58
2021/09/09 04:51:56;;;;;;;7.88;4.50;;;;;;;14.64;68.49;96982.69;5035793;28;20108;-59
2021/09/09 04:54:22;;;;;;;6.65;4.38;;;;;;;14.74;69.08;96978.69;5035881;28;20495;-58
2021/09/09 04:56:47;;;;;;;9.98;4.55;;;;;;;14.88;68.49;96985.09;5035859;28;20494;-58
2021/09/09 04:59:13;;;;;;;8.98;5.30;;;;;;;14.98;68.13;96973.19;5035673;28;20058;-58
2021/09/09 05:01:38;;;;;;;12.43;4.78;;;;;;;15.10;67.98;96974.38;5035871;28;20022;-57
2021/09/09 05:04:04;;;;;;;9.07;5.15;;;;;;;15.23;67.68;96982.50;5035725;28;20364;-58
2021/09/09 05:06:30;;;;;;;9.90;4.88;;;;;;;15.34;68.06;96979.34;5035758;28;20479;-58
2021/09/09 05:08:55;;;;;;;7.82;4.85;;;;;;;15.43;67.83;96970.13;5035795;28;20026;-57
2021/09/09 05:11:21;;;;;;;8.52;4.35;;;;;;;15.51;67.13;96975.00;5035647;28;20027;-59
2021/09/09 05:13:46;;;;;;;7.05;4.63;;;;;;;15.61;67.04;96972.75;5035477;28;20772;-59
2021/09/09 05:16:12;;;;;;;8.45;4.50;;;;;;;15.70;67.12;96976.69;5035627;28;20075;-58
2021/09/09 05:18:38;;;;;;;8.23;4.72;;;;;;;15.78;66.91;96977.97;5035622;28;20083;-58
2021/09/09 05:21:04;;;;;;;7.43;4.60;;;;;;;15.90;67.57;96973.84;5035554;28;20076;-58
2021/09/09 05:23:29;;;;;;;8.23;4.50;;;;;;;15.99;67.98;96971.69;5035625;28;20371;-59
2021/09/09 05:25:55;;;;;;;9.80;4.95;;;;;;;16.12;68.05;96970.13;5035445;28;20029;-59
2021/09/09 05:28:20;;;;;;;7.68;4.35;;;;;;;16.26;67.46;96979.06;5035367;28;20037;-58
2021/09/09 05:30:47;;;;;;;6.72;4.22;;;;;;;16.46;67.49;96969.22;5035304;28;20024;-59
2021/09/09 05:33:13;;;;;;;6.53;3.97;;;;;;;16.58;65.45;96975.63;5035138;28;20101;-58
2021/09/09 05:35:46;;;;;;;10.25;3.92;;;;;;;16.70;65.50;96979.34;5035202;28;20061;-59
2021/09/09 05:38:13;;;;;;;10.27;3.83;;;;;;;16.85;64.67;96975.84;5035229;28;20112;-59
2021/09/09 05:40:38;;;;;;;6.22;3.75;;;;;;;16.95;63.60;96973.53;5035022;28;20025;-58
2021/09/09 05:43:04;;;;;;;11.65;3.78;;;;;;;17.00;62.38;96975.88;5035078;28;20030;-57
2021/09/09 05:45:30;;;;;;;7.82;3.25;;;;;;;16.96;61.55;96975.22;5035186;28;20025;-57
2021/09/09 05:47:56;;;;;;;11.00;2.97;;;;;;;17.03;60.90;96975.72;5034967;28;20041;-59
2021/09/09 05:50:22;;;;;;;9.27;2.63;;;;;;;17.03;60.19;96975.72;5034937;28;20017;-59
2021/09/09 05:52:48;;;;;;;4.22;2.50;;;;;;;17.12;60.61;96971.72;5034840;28;20030;-59
2021/09/09 05:55:14;;;;;;;11.13;3.15;;;;;;;17.24;60.04;96978.09;5034814;28;20036;-58
2021/09/09 05:57:40;;;;;;;7.68;3.03;;;;;;;17.33;58.27;96982.00;5034865;28;20033;-59
2021/09/09 06:00:07;;;;;;;9.45;2.53;;;;;;;17.39;58.94;96976.34;5034607;28;20038;-58
2021/09/09 06:02:40;;;;;;;11.93;3.17;;;;;;;17.51;59.31;96975.63;5033829;28;20052;-59
2021/09/09 06:05:06;;;;;;;11.45;3.40;;;;;;;17.58;58.63;96977.91;5034679;28;20033;-58
2021/09/09 06:07:31;;;;;;;11.23;3.15;;;;;;;17.62;57.97;96976.78;5034640;28;20025;-58
2021/09/09 06:09:57;;;;;;;7.07;2.80;;;;;;;17.58;58.47;96977.91;5034707;28;20029;-57
2021/09/09 06:12:26;;;;;;;6.15;2.80;;;;;;;17.57;59.14;96976.22;5033233;28;20026;-59
2021/09/09 06:14:55;;;;;;;7.68;2.90;;;;;;;17.59;57.29;96977.81;5034463;28;20036;-59
2021/09/09 06:17:20;;;;;;;6.63;3.13;;;;;;;17.64;58.05;96978.38;5034381;28;20057;-59
2021/09/09 06:19:46;;;;;;;10.07;2.92;;;;;;;17.72;58.86;96979.72;5034394;28;20104;-59
2021/09/09 06:22:11;;;;;;;7.50;2.58;;;;;;;17.83;58.41;96982.56;5034319;28;20030;-59
2021/09/09 06:24:37;;;;;;;7.15;2.65;;;;;;;17.90;57.06;96985.69;5034235;28;20101;-59
2021/09/09 06:27:03;;;;;;;4.85;2.00;;;;;;;17.97;57.04;96988.81;5034452;28;20025;-59
2021/09/09 06:29:29;;;;;;;4.90;2.70;;;;;;;18.01;57.34;96988.56;5034128;28;20026;-58
2021/09/09 06:31:54;;;;;;;5.32;2.17;;;;;;;18.01;56.26;96980.59;5034066;28;20021;-58
2021/09/09 06:34:20;;;;;;;10.57;2.72;;;;;;;18.06;57.29;96985.59;5034051;28;20033;-59
2021/09/09 06:36:45;;;;;;;5.30;2.80;;;;;;;18.18;58.17;96990.16;5034096;28;20017;-58
2021/09/09 06:39:13;;;;;;;5.57;2.63;;;;;;;18.26;58.22;96991.50;5034006;28;20349;-58
2021/09/09 06:41:40;;;;;;;6.18;2.45;;;;;;;18.34;56.08;96983.06;5033956;28;20045;-59
2021/09/09 06:44:06;;;;;;;10.10;2.47;;;;;;;18.46;55.65;96989.41;5033960;28;20033;-58
2021/09/09 06:46:33;;;;;;;7.28;2.42;;;;;;;18.50;55.12;96990.91;5033914;28;20048;-58
2021/09/09 06:48:59;;;;;;;6.50;2.70;;;;;;;18.58;54.29;96985.97;5033896;28;20498;-58
2021/09/09 06:51:25;;;;;;;5.05;2.67;;;;;;;18.65;55.25;96981.13;5033683;28;20111;-57
2021/09/09 06:53:50;;;;;;;3.88;2.28;;;;;;;18.79;55.18;96986.38;5033551;28;20099;-59
2021/09/09 06:56:16;;;;;;;4.63;2.35;;;;;;;19.00;55.15;96991.25;5033738;28;20062;-59
2021/09/09 06:58:41;;;;;;;4.15;2.20;;;;;;;19.42;53.49;96990.34;5033369;28;20056;-58
2021/09/09 07:01:07;;;;;;;3.20;1.80;;;;;;;19.66;51.95;96995.78;5033743;28;20026;-59
2021/09/09 07:03:32;;;;;;;4.65;2.28;;;;;;;19.68;51.42;96985.94;5033485;28;20025;-58
2021/09/09 07:05:58;;;;;;;8.65;2.38;;;;;;;19.54;51.97;96997.47;5033489;28;20495;-58
2021/09/09 07:08:24;;;;;;;4.30;2.45;;;;;;;19.29;52.32;97001.75;5033490;28;20030;-59
2021/09/09 07:10:50;;;;;;;7.20;1.98;;;;;;;19.30;52.52;96995.50;5033512;28;20124;-59
2021/09/09 07:13:17;;;;;;;5.97;2.05;;;;;;;19.15;51.74;96992.06;5033136;28;20037;-56
2021/09/09 07:15:44;;;;;;;6.07;2.00;;;;;;;19.02;51.82;96992.00;5033314;28;20044;-57
2021/09/09 07:18:09;;;;;;;4.43;2.17;;;;;;;18.98;53.11;96993.16;5033367;28;20034;-58
2021/09/09 07:20:35;;;;;;;6.70;2.10;;;;;;;19.09;53.18;96987.19;5033459;28;20025;-59
2021/09/09 07:23:01;;;;;;;4.57;2.25;;;;;;;19.57;51.92;96985.81;5033410;28;20025;-58
2021/09/09 07:25:26;;;;;;;6.25;2.13;;;;;;;20.14;52.02;96978.41;5033242;28;20026;-59
2021/09/09 07:27:52;;;;;;;8.05;2.30;;;;;;;20.67;51.02;96976.50;5033248;28;20105;-58
2021/09/09 07:30:18;;;;;;;7.35;2.72;;;;;;;20.96;47.75;96984.19;5033153;28;20036;-58
2021/09/09 07:32:43;;;;;;;8.18;2.10;;;;;;;20.86;47.92;96983.97;5033061;28;20025;-58
2021/09/09 07:35:11;;;;;;;4.55;2.30;;;;;;;20.71;48.24;96984.13;5033140;28;20014;-59
2021/09/09 07:37:38;;;;;;;4.32;2.00;;;;;;;20.99;48.02;96986.63;5033191;28;20021;-58
2021/09/09 07:40:05;;;;;;;4.35;2.00;;;;;;;21.29;47.75;96993.31;5033062;28;20543;-58
2021/09/09 07:42:31;;;;;;;4.68;2.10;;;;;;;21.51;47.88;96985.50;5032953;28;20491;-59
2021/09/09 07:44:57;;;;;;;8.55;1.92;;;;;;;21.69;46.63;96988.56;5033072;28;20021;-59
2021/09/09 07:47:23;;;;;;;10.13;2.22;;;;;;;21.36;46.75;96985.69;5032987;28;20021;-58
2021/09/09 07:49:48;;;;;;;4.72;2.17;;;;;;;20.95;46.94;96977.19;5032938;28;20033;-59
2021/09/09 07:52:15;;;;;;;9.43;2.20;;;;;;;20.69;49.57;96980.75;5032959;28;20071;-56
2021/09/09 07:54:41;;;;;;;3.65;1.83;;;;;;;21.15;49.39;96983.69;5032947;28;20025;-59
2021/09/09 07:57:07;;;;;;;6.43;2.08;;;;;;;21.51;46.16;96981.03;5032838;28;20471;-59
2021/09/09 07:59:32;;;;;;;6.40;1.90;;;;;;;21.49;47.75;96982.13;5032675;28;20167;-58
2021/09/09 08:01:58;;;;;;;5.25;2.60;;;;;;;21.34;46.80;96985.81;5032970;28;20395;-58
2021/09/09 08:04:24;;;;;;;7.43;2.00;;;;;;;21.23;47.61;96990.22;5032929;28;20025;-60
2021/09/09 08:06:50;;;;;;;7.25;2.50;;;;;;;21.14;48.27;96987.31;5032798;28;20060;-58
2021/09/09 08:09:16;;;;;;;6.00;2.22;;;;;;;21.06;48.36;96992.34;5032922;28;20025;-59
2021/09/09 08:11:41;;;;;;;6.10;2.10;;;;;;;20.83;48.45;96985.06;5032901;28;20484;-58
2021/09/09 08:14:07;;;;;;;8.93;2.22;;;;;;;20.97;48.90;96991.19;5032715;28;20030;-58
2021/09/09 08:16:37;;;;;;;8.15;2.30;;;;;;;21.09;48.55;96989.44;5032755;28;20383;-59
2021/09/09 08:19:03;;;;;;;7.88;2.33;;;;;;;20.85;48.09;96984.94;5032942;28;20388;-59
2021/09/09 08:21:29;;;;;;;5.97;1.95;;;;;;;20.98;47.38;96984.09;5032728;28;20467;-59
2021/09/09 08:23:55;;;;;;;8.18;2.67;;;;;;;21.24;49.41;96984.81;5032592;28;20109;-58
2021/09/09 08:26:20;;;;;;;5.43;2.15;;;;;;;21.28;47.72;96985.44;5035227;28;20026;-59
2021/09/09 08:28:46;;;;;;;6.82;2.45;;;;;;;21.29;49.13;96993.31;5036477;28;20533;-59
2021/09/09 08:31:12;;;;;;;4.32;2.15;;;;;;;21.01;47.34;96983.84;5036503;28;20017;-58
2021/09/09 08:33:39;;;;;;;7.25;2.00;;;;;;;20.77;48.17;96984.66;5036292;28;20032;-58
2021/09/09 08:36:06;;;;;;;4.60;2.03;;;;;;;20.47;48.73;96986.78;5036381;28;20033;-59
2021/09/09 08:38:32;;;;;;;6.93;1.95;;;;;;;20.46;48.67;96979.75;5036410;28;20017;-59
2021/09/09 08:41:01;;;;;;;7.25;1.80;;;;;;;20.30;49.17;96977.34;5036315;28;20032;-60
2021/09/09 08:43:27;;;;;;;7.47;1.98;;;;;;;20.45;49.65;96981.56;5036183;28;20029;-60
2021/09/09 08:45:54;;;;;;;7.53;2.03;;;;;;;20.76;48.49;96975.84;5036086;28;20021;-59
2021/09/09 08:48:21;;;;;;;5.28;2.28;;;;;;;21.19;48.28;96977.16;5036174;28;20561;-59
2021/09/09 08:50:48;;;;;;;11.70;2.10;;;;;;;21.60;48.08;96974.16;5036124;28;20021;-58
2021/09/09 08:53:15;;;;;;;5.40;2.13;;;;;;;21.68;48.88;96974.44;5035940;28;20034;-57
2021/09/09 08:55:43;;;;;;;6.75;2.30;;;;;;;21.65;46.56;96976.47;5035992;28;20139;-57
2021/09/09 08:58:10;;;;;;;3.63;1.95;;;;;;;21.46;46.83;96968.06;5035592;28;20504;-59
2021/09/09 09:00:36;;;;;;;4.68;1.88;;;;;;;21.45;47.57;96968.19;5036005;28;20025;-59
2021/09/09 09:03:01;;;;;;;7.35;2.15;;;;;;;21.46;48.20;96964.56;5035952;28;20080;-58
2021/09/09 09:05:27;;;;;;;4.80;2.20;;;;;;;21.62;48.61;96964.25;5035797;28;20026;-59
2021/09/09 09:08:04;;;;;;;5.65;2.05;;;;;;;22.04;48.55;96962.88;5035709;28;20430;-59
2021/09/09 09:10:32;;;;;;;7.97;2.13;;;;;;;22.26;47.52;96955.84;5035839;28;20018;-59
2021/09/09 09:12:59;;;;;;;9.80;2.40;;;;;;;22.08;45.81;96957.19;5035673;28;20036;-60
2021/09/09 09:15:28;;;;;;;5.82;1.88;;;;;;;21.87;47.10;96953.53;5035602;28;20033;-59
2021/09/09 09:18:09;;;;;;;8.00;2.17;;;;;;;22.03;47.20;96942.56;5035556;28;20031;-59
2021/09/09 09:20:46;;;;;;;4.93;2.55;;;;;;;22.04;48.09;96949.56;5035611;28;20030;-59
2021/09/09 09:23:18;;;;;;;6.82;2.08;;;;;;;22.00;47.61;96951.59;5035461;28;20475;-59
2021/09/09 09:25:43;;;;;;;7.10;2.00;;;;;;;21.86;47.59;96958.03;5035464;28;20047;-59
2021/09/09 09:28:09;;;;;;;11.07;1.98;;;;;;;21.68;47.02;96953.13;5035472;28;20029;-59
2021/09/09 09:30:35;;;;;;;8.90;2.38;;;;;;;21.40;48.31;96952.56;5035346;28;20053;-60
2021/09/09 09:33:01;;;;;;;10.07;2.42;;;;;;;21.14;49.03;96954.53;5035183;28;20497;-59
2021/09/09 09:35:27;;;;;;;9.00;2.38;;;;;;;21.05;49.25;96954.28;5035262;28;20101;-59
2021/09/09 09:37:55;;;;;;;8.00;2.40;;;;;;;21.20;51.01;96948.75;5035106;28;20113;-60
2021/09/09 09:40:24;;;;;;;8.15;2.17;;;;;;;21.42;49.68;96948.00;5035247;28;20083;-59
2021/09/09 09:42:49;;;;;;;7.28;2.20;;;;;;;21.65;49.99;96947.19;5035129;28;20029;-59
2021/09/09 09:45:15;;;;;;;9.65;2.50;;;;;;;21.99;49.72;96947.25;5035160;28;20022;-59
2021/09/09 09:47:41;;;;;;;6.28;1.98;;;;;;;22.29;47.62;96937.81;5035003;28;20376;-58
2021/09/09 09:50:19;;;;;;;5.53;1.80;;;;;;;22.44;45.83;96935.75;5035063;28;20094;-59
2021/09/09 09:52:46;;;;;;;8.00;2.08;;;;;;;22.44;45.82;96943.72;5034807;28;20104;-59
2021/09/09 09:55:12;;;;;;;6.03;1.65;;;;;;;22.31;44.90;96927.88;5034882;28;20025;-59
2021/09/09 09:57:55;;;;;;;3.55;1.90;;;;;;;22.07;44.61;96934.16;5034855;28;20495;-58
2021/09/09 10:00:22;;;;;;;4.15;2.00;;;;;;;21.98;45.98;96937.59;5034974;28;20091;-59
2021/09/09 10:02:48;;;;;;;6.82;1.95;;;;;;;21.92;45.71;96943.38;5034808;28;20025;-59
2021/09/09 10:05:15;;;;;;;5.65;2.13;;;;;;;21.88;46.79;96940.09;5034709;28;20017;-58
2021/09/09 10:07:41;;;;;;;7.32;2.05;;;;;;;21.96;46.95;96936.84;5034587;28;20057;-60
2021/09/09 10:10:08;;;;;;;6.88;2.40;;;;;;;21.84;44.93;96931.53;5034626;28;20433;-60
2021/09/09 10:12:34;;;;;;;9.35;2.03;;;;;;;21.86;46.70;96931.41;5034495;28;20029;-58
2021/09/09 10:15:04;;;;;;;4.32;1.85;;;;;;;21.94;45.87;96928.13;5034485;28;20018;-59
2021/09/09 10:17:31;;;;;;;12.05;2.20;;;;;;;21.90;45.73;96927.53;5034545;28;20029;-60
2021/09/09 10:20:33;;;;;;;4.38;2.03;;;;;;;21.62;46.87;96934.13;5034466;28;20171;-59
2021/09/09 10:23:05;;;;;;;7.15;1.63;;;;;;;21.50;45.68;96931.44;5034434;28;20445;-58
2021/09/09 10:25:48;;;;;;;5.72;1.92;;;;;;;21.40;46.44;96923.28;5034341;28;20036;-58
2021/09/09 10:28:32;;;;;;;5.53;1.65;;;;;;;21.31;45.24;96916.88;5034250;28;20104;-59
2021/09/09 10:31:04;;;;;;;5.25;1.83;;;;;;;21.39;46.19;96912.78;5034224;28;20477;-59
2021/09/09 10:33:30;;;;;;;7.07;2.08;;;;;;;21.40;45.75;96917.16;5034073;28;20041;-59
2021/09/09 10:35:56;;;;;;;5.80;1.65;;;;;;;21.38;46.06;96917.25;5034122;28;20467;-59
2021/09/09 10:38:23;;;;;;;9.23;2.03;;;;;;;21.48;46.41;96924.53;5034095;28;20030;-58
2021/09/09 10:40:49;;;;;;;6.25;1.98;;;;;;;21.44;45.05;96915.94;5034013;28;20040;-59
2021/09/09 10:43:26;;;;;;;2.80;1.50;;;;;;;21.40;46.37;96912.66;5033997;28;20081;-59
2021/09/09 10:46:02;;;;;;;5.65;2.15;;;;;;;21.62;46.65;96903.03;5033918;28;20029;-58
2021/09/09 10:48:30;;;;;;;5.35;1.60;;;;;;;21.70;45.44;96905.94;5033308;28;20486;-58
2021/09/09 10:51:05;;;;;;;3.10;1.67;;;;;;;21.79;47.77;96906.25;5033833;28;20099;-58
2021/09/09 10:53:34;;;;;;;2.55;1.55;;;;;;;21.80;45.61;96894.59;5033908;28;20035;-59
2021/09/09 10:56:09;;;;;;;8.43;1.88;;;;;;;21.77;44.61;96894.84;5033899;28;20065;-58
2021/09/09 10:58:35;;;;;;;5.00;1.70;;;;;;;21.68;45.57;96902.56;5033555;28;20462;-59
2021/09/09 11:01:07;;;;;;;8.02;2.00;;;;;;;21.68;46.35;96896.38;5033756;28;20463;-57
2021/09/09 11:03:46;;;;;;;7.70;1.52;;;;;;;21.68;47.05;96899.03;5033702;28;20032;-59
2021/09/09 11:06:22;;;;;;;4.15;2.28;;;;;;;21.65;47.49;96896.63;5033672;28;20479;-59
2021/09/09 11:08:51;;;;;;;5.35;2.38;;;;;;;21.57;46.31;96897.22;5033580;28;20029;-59
2021/09/09 11:11:21;;;;;;;5.53;1.73;;;;;;;21.40;45.12;96894.03;5033466;28;20033;-59
2021/09/09 11:14:02;;;;;;;7.70;1.70;;;;;;;21.36;46.41;96895.25;5033473;28;20032;-59
2021/09/09 11:16:35;;;;;;;4.72;1.55;;;;;;;21.31;46.95;96890.28;5033507;28;20068;-59
2021/09/09 11:19:02;;;;;;;3.72;1.48;;;;;;;21.30;46.74;96887.72;5033506;28;20395;-58
2021/09/09 11:21:35;;;;;;;3.92;1.80;;;;;;;21.23;46.57;96884.69;5033299;28;20033;-59
2021/09/09 11:24:12;;;;;;;4.75;1.75;;;;;;;21.20;46.80;96884.94;5033503;28;20056;-59
2021/09/09 11:26:40;;;;;;;3.50;1.55;;;;;;;21.12;47.50;96884.66;5033306;28;20386;-59
2021/09/09 11:29:06;;;;;;;4.57;1.58;;;;;;;20.99;46.74;96874.09;5033207;28;20463;-59